Krebs, Oklahoma
Current Conditions -  °F | °C
As of 5:53 PM on Friday 24 Oct 2014 (Local Time) from KMLC Reporting Station
Clear Clear  
Wind Chill: 77°   Ceiling: Unl
Heat Index: 79°   Visibility: 10mi
Dew Point: 61°   Wind: 6mph
Humidity: 58%   Direction: 190°S
Pressure: 30.06"   Gusts: NA
Location:  34.93°N, 95.72°W
Report Text: KMLC 242253Z AUTO 19005KT 10SM CLR 25/16 A3006 RMK AO2 SLP173 T02500161
Loading
Personal Weather Stations






























Interactive Weather Map New forecast layout! Learn more

10-Day Weather Forecast

Advertisements
Track Severe Weather on mobile